sensor_id;sensor_type;location;lat;lon;timestamp;P1;durP1;ratioP1;P2;durP2;ratioP2
35897;SDS011;21997;47.118;15.346;2022-12-18T00:03:50;18.47;;;9.93;;
35897;SDS011;21997;47.118;15.346;2022-12-18T00:06:16;18.27;;;10.37;;
35897;SDS011;21997;47.118;15.346;2022-12-18T00:08:42;15.17;;;9.33;;
35897;SDS011;21997;47.118;15.346;2022-12-18T00:11:10;20.80;;;11.33;;
35897;SDS011;21997;47.118;15.346;2022-12-18T00:13:38;17.13;;;9.70;;
35897;SDS011;21997;47.118;15.346;2022-12-18T00:16:04;18.03;;;10.40;;
35897;SDS011;21997;47.118;15.346;2022-12-18T00:18:31;15.47;;;9.90;;
35897;SDS011;21997;47.118;15.346;2022-12-18T00:21:01;13.47;;;9.00;;
35897;SDS011;21997;47.118;15.346;2022-12-18T00:23:28;18.10;;;9.23;;
35897;SDS011;21997;47.118;15.346;2022-12-18T00:25:53;14.90;;;8.83;;
35897;SDS011;21997;47.118;15.346;2022-12-18T00:28:19;12.43;;;8.20;;
35897;SDS011;21997;47.118;15.346;2022-12-18T00:30:44;12.30;;;7.77;;
35897;SDS011;21997;47.118;15.346;2022-12-18T00:33:09;15.67;;;9.03;;
35897;SDS011;21997;47.118;15.346;2022-12-18T00:35:35;10.70;;;7.83;;
35897;SDS011;21997;47.118;15.346;2022-12-18T00:38:00;12.23;;;7.10;;
35897;SDS011;21997;47.118;15.346;2022-12-18T00:40:25;12.37;;;7.83;;
35897;SDS011;21997;47.118;15.346;2022-12-18T00:42:51;13.00;;;7.60;;
35897;SDS011;21997;47.118;15.346;2022-12-18T00:45:27;14.13;;;8.40;;
35897;SDS011;21997;47.118;15.346;2022-12-18T00:47:54;14.67;;;8.20;;
35897;SDS011;21997;47.118;15.346;2022-12-18T00:50:20;12.63;;;8.17;;
35897;SDS011;21997;47.118;15.346;2022-12-18T00:52:46;17.10;;;8.50;;
35897;SDS011;21997;47.118;15.346;2022-12-18T00:55:12;13.83;;;8.63;;
35897;SDS011;21997;47.118;15.346;2022-12-18T00:57:38;13.53;;;7.60;;
35897;SDS011;21997;47.118;15.346;2022-12-18T01:00:04;13.57;;;7.70;;
35897;SDS011;21997;47.118;15.346;2022-12-18T01:02:30;10.70;;;6.93;;
35897;SDS011;21997;47.118;15.346;2022-12-18T01:04:56;10.27;;;6.80;;
35897;SDS011;21997;47.118;15.346;2022-12-18T01:07:21;8.93;;;5.70;;
35897;SDS011;21997;47.118;15.346;2022-12-18T01:09:46;12.53;;;6.93;;
35897;SDS011;21997;47.118;15.346;2022-12-18T01:12:12;8.53;;;5.40;;
35897;SDS011;21997;47.118;15.346;2022-12-18T01:14:37;9.37;;;6.37;;
35897;SDS011;21997;47.118;15.346;2022-12-18T01:17:03;9.90;;;5.30;;
35897;SDS011;21997;47.118;15.346;2022-12-18T01:19:28;9.33;;;6.00;;
35897;SDS011;21997;47.118;15.346;2022-12-18T01:21:54;11.30;;;6.27;;
35897;SDS011;21997;47.118;15.346;2022-12-18T01:24:19;10.90;;;6.17;;
35897;SDS011;21997;47.118;15.346;2022-12-18T01:26:45;13.07;;;5.93;;
35897;SDS011;21997;47.118;15.346;2022-12-18T01:29:10;10.90;;;6.80;;
35897;SDS011;21997;47.118;15.346;2022-12-18T01:31:35;8.87;;;5.70;;
35897;SDS011;21997;47.118;15.346;2022-12-18T01:34:01;9.90;;;6.13;;
35897;SDS011;21997;47.118;15.346;2022-12-18T01:36:28;12.03;;;6.33;;
35897;SDS011;21997;47.118;15.346;2022-12-18T01:38:55;13.10;;;7.13;;
35897;SDS011;21997;47.118;15.346;2022-12-18T01:41:22;12.30;;;5.73;;
35897;SDS011;21997;47.118;15.346;2022-12-18T01:43:56;10.10;;;5.73;;
35897;SDS011;21997;47.118;15.346;2022-12-18T01:46:23;9.03;;;5.80;;
35897;SDS011;21997;47.118;15.346;2022-12-18T01:48:49;9.30;;;5.73;;
35897;SDS011;21997;47.118;15.346;2022-12-18T01:51:16;11.17;;;6.20;;
35897;SDS011;21997;47.118;15.346;2022-12-18T01:53:42;8.97;;;6.37;;
35897;SDS011;21997;47.118;15.346;2022-12-18T01:56:10;12.70;;;6.13;;
35897;SDS011;21997;47.118;15.346;2022-12-18T02:01:06;10.07;;;5.90;;
35897;SDS011;21997;47.118;15.346;2022-12-18T02:03:32;10.93;;;6.17;;
35897;SDS011;21997;47.118;15.346;2022-12-18T02:08:25;11.77;;;6.10;;
35897;SDS011;21997;47.118;15.346;2022-12-18T02:16:24;8.77;;;5.13;;
35897;SDS011;21997;47.118;15.346;2022-12-18T02:19:28;9.57;;;5.70;;
35897;SDS011;21997;47.118;15.346;2022-12-18T02:27:49;7.07;;;4.73;;
35897;SDS011;21997;47.118;15.346;2022-12-18T02:30:15;10.23;;;5.43;;
35897;SDS011;21997;47.118;15.346;2022-12-18T02:32:43;7.70;;;5.37;;
35897;SDS011;21997;47.118;15.346;2022-12-18T02:35:15;10.80;;;4.93;;
35897;SDS011;21997;47.118;15.346;2022-12-18T02:37:43;7.97;;;5.20;;
35897;SDS011;21997;47.118;15.346;2022-12-18T02:40:10;9.07;;;5.17;;
35897;SDS011;21997;47.118;15.346;2022-12-18T02:42:36;6.63;;;4.50;;
35897;SDS011;21997;47.118;15.346;2022-12-18T02:45:01;11.60;;;5.13;;
35897;SDS011;21997;47.118;15.346;2022-12-18T02:47:31;6.87;;;4.50;;
35897;SDS011;21997;47.118;15.346;2022-12-18T02:58:03;8.27;;;4.97;;
35897;SDS011;21997;47.118;15.346;2022-12-18T03:03:31;6.37;;;3.83;;
35897;SDS011;21997;47.118;15.346;2022-12-18T03:06:04;8.10;;;5.27;;
35897;SDS011;21997;47.118;15.346;2022-12-18T03:08:34;8.37;;;4.70;;
35897;SDS011;21997;47.118;15.346;2022-12-18T03:11:07;8.63;;;4.57;;
35897;SDS011;21997;47.118;15.346;2022-12-18T03:13:39;8.77;;;4.97;;
35897;SDS011;21997;47.118;15.346;2022-12-18T03:16:08;10.47;;;4.80;;
35897;SDS011;21997;47.118;15.346;2022-12-18T03:18:44;7.97;;;5.07;;
35897;SDS011;21997;47.118;15.346;2022-12-18T03:21:14;10.03;;;5.00;;
35897;SDS011;21997;47.118;15.346;2022-12-18T03:23:44;8.80;;;5.07;;
35897;SDS011;21997;47.118;15.346;2022-12-18T03:26:13;8.53;;;4.63;;
35897;SDS011;21997;47.118;15.346;2022-12-18T03:28:49;6.33;;;4.33;;
35897;SDS011;21997;47.118;15.346;2022-12-18T03:31:17;6.93;;;4.70;;
35897;SDS011;21997;47.118;15.346;2022-12-18T03:33:54;7.37;;;5.20;;
35897;SDS011;21997;47.118;15.346;2022-12-18T03:36:21;6.00;;;4.33;;
35897;SDS011;21997;47.118;15.346;2022-12-18T03:38:47;9.03;;;5.20;;
35897;SDS011;21997;47.118;15.346;2022-12-18T03:54:28;7.57;;;4.73;;
35897;SDS011;21997;47.118;15.346;2022-12-18T03:56:59;8.57;;;4.70;;
35897;SDS011;21997;47.118;15.346;2022-12-18T03:59:28;9.43;;;5.13;;
35897;SDS011;21997;47.118;15.346;2022-12-18T04:01:55;7.97;;;5.17;;
35897;SDS011;21997;47.118;15.346;2022-12-18T04:04:21;7.83;;;4.60;;
35897;SDS011;21997;47.118;15.346;2022-12-18T04:06:46;9.43;;;5.27;;
35897;SDS011;21997;47.118;15.346;2022-12-18T04:09:13;7.57;;;4.83;;
35897;SDS011;21997;47.118;15.346;2022-12-18T04:11:42;8.77;;;5.50;;
35897;SDS011;21997;47.118;15.346;2022-12-18T04:14:10;9.43;;;4.80;;
35897;SDS011;21997;47.118;15.346;2022-12-18T04:16:35;7.17;;;4.50;;
35897;SDS011;21997;47.118;15.346;2022-12-18T04:19:01;7.60;;;4.93;;
35897;SDS011;21997;47.118;15.346;2022-12-18T04:21:26;9.27;;;4.80;;
35897;SDS011;21997;47.118;15.346;2022-12-18T04:23:51;8.80;;;5.00;;
35897;SDS011;21997;47.118;15.346;2022-12-18T04:26:17;9.87;;;4.60;;
35897;SDS011;21997;47.118;15.346;2022-12-18T04:28:42;7.50;;;4.60;;
35897;SDS011;21997;47.118;15.346;2022-12-18T04:31:07;7.77;;;4.50;;
35897;SDS011;21997;47.118;15.346;2022-12-18T04:33:33;7.03;;;4.63;;
35897;SDS011;21997;47.118;15.346;2022-12-18T04:35:58;7.43;;;4.20;;
35897;SDS011;21997;47.118;15.346;2022-12-18T04:38:24;8.50;;;5.90;;
35897;SDS011;21997;47.118;15.346;2022-12-18T04:40:49;7.50;;;4.70;;
35897;SDS011;21997;47.118;15.346;2022-12-18T04:43:14;6.03;;;4.30;;
35897;SDS011;21997;47.118;15.346;2022-12-18T04:45:40;7.17;;;4.50;;
35897;SDS011;21997;47.118;15.346;2022-12-18T04:48:05;9.10;;;5.20;;
35897;SDS011;21997;47.118;15.346;2022-12-18T04:50:31;6.30;;;4.13;;
35897;SDS011;21997;47.118;15.346;2022-12-18T04:52:56;9.13;;;5.63;;
35897;SDS011;21997;47.118;15.346;2022-12-18T04:55:22;8.30;;;4.47;;
35897;SDS011;21997;47.118;15.346;2022-12-18T04:57:47;5.33;;;3.20;;
35897;SDS011;21997;47.118;15.346;2022-12-18T05:00:13;7.33;;;4.20;;
35897;SDS011;21997;47.118;15.346;2022-12-18T05:02:39;7.73;;;4.37;;
35897;SDS011;21997;47.118;15.346;2022-12-18T05:05:04;6.43;;;4.47;;
35897;SDS011;21997;47.118;15.346;2022-12-18T05:07:30;6.77;;;3.83;;
35897;SDS011;21997;47.118;15.346;2022-12-18T05:09:56;9.17;;;4.30;;
35897;SDS011;21997;47.118;15.346;2022-12-18T05:12:21;6.10;;;4.53;;
35897;SDS011;21997;47.118;15.346;2022-12-18T05:14:49;5.63;;;4.07;;
35897;SDS011;21997;47.118;15.346;2022-12-18T05:17:15;5.53;;;3.67;;
35897;SDS011;21997;47.118;15.346;2022-12-18T05:19:40;6.47;;;3.70;;
35897;SDS011;21997;47.118;15.346;2022-12-18T05:22:05;10.13;;;4.23;;
35897;SDS011;21997;47.118;15.346;2022-12-18T05:24:31;7.03;;;4.03;;
35897;SDS011;21997;47.118;15.346;2022-12-18T05:26:56;6.50;;;4.20;;
35897;SDS011;21997;47.118;15.346;2022-12-18T05:29:22;5.37;;;3.33;;
35897;SDS011;21997;47.118;15.346;2022-12-18T05:31:47;6.60;;;4.00;;
35897;SDS011;21997;47.118;15.346;2022-12-18T05:34:13;6.80;;;4.00;;
35897;SDS011;21997;47.118;15.346;2022-12-18T05:36:38;9.57;;;4.63;;
35897;SDS011;21997;47.118;15.346;2022-12-18T05:39:03;7.23;;;3.80;;
35897;SDS011;21997;47.118;15.346;2022-12-18T05:41:29;7.63;;;3.70;;
35897;SDS011;21997;47.118;15.346;2022-12-18T05:43:54;7.20;;;3.90;;
35897;SDS011;21997;47.118;15.346;2022-12-18T05:46:19;8.10;;;4.50;;
35897;SDS011;21997;47.118;15.346;2022-12-18T05:48:45;7.23;;;4.57;;
35897;SDS011;21997;47.118;15.346;2022-12-18T05:51:11;6.73;;;4.17;;
35897;SDS011;21997;47.118;15.346;2022-12-18T05:53:40;7.17;;;3.97;;
35897;SDS011;21997;47.118;15.346;2022-12-18T05:56:07;5.60;;;4.50;;
35897;SDS011;21997;47.118;15.346;2022-12-18T05:58:35;5.80;;;4.30;;
35897;SDS011;21997;47.118;15.346;2022-12-18T06:03:37;6.87;;;4.00;;
35897;SDS011;21997;47.118;15.346;2022-12-18T06:06:02;7.37;;;3.70;;
35897;SDS011;21997;47.118;15.346;2022-12-18T06:08:28;8.37;;;4.97;;
35897;SDS011;21997;47.118;15.346;2022-12-18T06:10:53;9.57;;;5.73;;
35897;SDS011;21997;47.118;15.346;2022-12-18T06:13:19;8.93;;;6.87;;
35897;SDS011;21997;47.118;15.346;2022-12-18T06:15:45;9.83;;;6.20;;
35897;SDS011;21997;47.118;15.346;2022-12-18T06:18:10;9.20;;;6.10;;
35897;SDS011;21997;47.118;15.346;2022-12-18T06:20:36;11.60;;;6.10;;
35897;SDS011;21997;47.118;15.346;2022-12-18T06:23:04;7.83;;;5.57;;
35897;SDS011;21997;47.118;15.346;2022-12-18T06:25:30;10.00;;;6.00;;
35897;SDS011;21997;47.118;15.346;2022-12-18T06:27:55;9.70;;;5.57;;
35897;SDS011;21997;47.118;15.346;2022-12-18T06:30:21;8.87;;;6.20;;
35897;SDS011;21997;47.118;15.346;2022-12-18T06:32:47;8.47;;;6.13;;
35897;SDS011;21997;47.118;15.346;2022-12-18T06:35:13;9.50;;;5.83;;
35897;SDS011;21997;47.118;15.346;2022-12-18T06:37:38;10.27;;;6.73;;
35897;SDS011;21997;47.118;15.346;2022-12-18T06:40:04;9.27;;;6.23;;
35897;SDS011;21997;47.118;15.346;2022-12-18T06:42:30;8.93;;;6.00;;
35897;SDS011;21997;47.118;15.346;2022-12-18T06:44:56;9.50;;;7.13;;
35897;SDS011;21997;47.118;15.346;2022-12-18T06:47:22;13.53;;;6.83;;
35897;SDS011;21997;47.118;15.346;2022-12-18T06:49:47;10.20;;;6.17;;
35897;SDS011;21997;47.118;15.346;2022-12-18T06:52:13;9.07;;;6.60;;
35897;SDS011;21997;47.118;15.346;2022-12-18T06:54:38;9.00;;;6.20;;
35897;SDS011;21997;47.118;15.346;2022-12-18T06:57:03;13.90;;;7.67;;
35897;SDS011;21997;47.118;15.346;2022-12-18T06:59:29;10.50;;;7.07;;
35897;SDS011;21997;47.118;15.346;2022-12-18T07:01:54;10.40;;;7.03;;
35897;SDS011;21997;47.118;15.346;2022-12-18T07:04:20;7.57;;;6.43;;
35897;SDS011;21997;47.118;15.346;2022-12-18T07:06:45;8.73;;;6.87;;
35897;SDS011;21997;47.118;15.346;2022-12-18T07:09:10;10.20;;;7.53;;
35897;SDS011;21997;47.118;15.346;2022-12-18T07:11:36;10.27;;;7.77;;
35897;SDS011;21997;47.118;15.346;2022-12-18T07:14:01;12.10;;;7.33;;
35897;SDS011;21997;47.118;15.346;2022-12-18T07:16:26;12.00;;;7.60;;
35897;SDS011;21997;47.118;15.346;2022-12-18T07:18:56;9.13;;;6.73;;
35897;SDS011;21997;47.118;15.346;2022-12-18T07:21:21;8.23;;;6.03;;
35897;SDS011;21997;47.118;15.346;2022-12-18T07:23:48;14.23;;;7.63;;
35897;SDS011;21997;47.118;15.346;2022-12-18T07:26:14;14.80;;;8.27;;
35897;SDS011;21997;47.118;15.346;2022-12-18T07:28:41;11.43;;;7.07;;
35897;SDS011;21997;47.118;15.346;2022-12-18T07:31:12;11.97;;;7.57;;
35897;SDS011;21997;47.118;15.346;2022-12-18T07:33:39;11.03;;;6.67;;
35897;SDS011;21997;47.118;15.346;2022-12-18T07:36:05;8.67;;;6.23;;
35897;SDS011;21997;47.118;15.346;2022-12-18T07:38:32;10.93;;;7.10;;
35897;SDS011;21997;47.118;15.346;2022-12-18T07:41:16;10.27;;;7.07;;
35897;SDS011;21997;47.118;15.346;2022-12-18T07:43:42;12.17;;;6.83;;
35897;SDS011;21997;47.118;15.346;2022-12-18T07:46:07;13.20;;;7.87;;
35897;SDS011;21997;47.118;15.346;2022-12-18T07:48:33;11.93;;;7.23;;
35897;SDS011;21997;47.118;15.346;2022-12-18T07:50:59;10.07;;;7.10;;
35897;SDS011;21997;47.118;15.346;2022-12-18T07:53:29;10.60;;;6.80;;
35897;SDS011;21997;47.118;15.346;2022-12-18T07:56:02;10.80;;;7.23;;
35897;SDS011;21997;47.118;15.346;2022-12-18T07:58:29;13.10;;;7.47;;
35897;SDS011;21997;47.118;15.346;2022-12-18T08:01:02;10.67;;;7.47;;
35897;SDS011;21997;47.118;15.346;2022-12-18T08:03:31;13.10;;;7.43;;
35897;SDS011;21997;47.118;15.346;2022-12-18T08:06:01;9.83;;;6.33;;
35897;SDS011;21997;47.118;15.346;2022-12-18T08:08:27;9.13;;;6.30;;
35897;SDS011;21997;47.118;15.346;2022-12-18T08:10:53;9.07;;;6.70;;
35897;SDS011;21997;47.118;15.346;2022-12-18T08:13:19;8.37;;;5.63;;
35897;SDS011;21997;47.118;15.346;2022-12-18T08:15:44;7.13;;;5.77;;
35897;SDS011;21997;47.118;15.346;2022-12-18T08:18:10;7.93;;;5.90;;
35897;SDS011;21997;47.118;15.346;2022-12-18T08:20:35;9.93;;;7.00;;
35897;SDS011;21997;47.118;15.346;2022-12-18T08:23:02;11.90;;;7.33;;
35897;SDS011;21997;47.118;15.346;2022-12-18T08:25:28;12.03;;;5.97;;
35897;SDS011;21997;47.118;15.346;2022-12-18T08:27:53;8.93;;;6.40;;
35897;SDS011;21997;47.118;15.346;2022-12-18T08:30:21;12.30;;;6.57;;
35897;SDS011;21997;47.118;15.346;2022-12-18T08:32:47;11.13;;;6.33;;
35897;SDS011;21997;47.118;15.346;2022-12-18T08:35:14;9.63;;;6.60;;
35897;SDS011;21997;47.118;15.346;2022-12-18T08:37:39;9.33;;;6.10;;
35897;SDS011;21997;47.118;15.346;2022-12-18T08:40:05;10.50;;;6.43;;
35897;SDS011;21997;47.118;15.346;2022-12-18T08:42:34;9.63;;;6.23;;
35897;SDS011;21997;47.118;15.346;2022-12-18T08:45:18;7.67;;;5.80;;
35897;SDS011;21997;47.118;15.346;2022-12-18T08:47:43;10.67;;;7.10;;
35897;SDS011;21997;47.118;15.346;2022-12-18T08:50:09;9.13;;;6.57;;
35897;SDS011;21997;47.118;15.346;2022-12-18T08:52:36;8.47;;;5.80;;
35897;SDS011;21997;47.118;15.346;2022-12-18T08:55:01;8.83;;;5.90;;
35897;SDS011;21997;47.118;15.346;2022-12-18T08:57:26;9.33;;;6.47;;
35897;SDS011;21997;47.118;15.346;2022-12-18T08:59:52;9.73;;;6.20;;
35897;SDS011;21997;47.118;15.346;2022-12-18T09:02:17;9.90;;;5.57;;
35897;SDS011;21997;47.118;15.346;2022-12-18T09:04:43;9.17;;;6.87;;
35897;SDS011;21997;47.118;15.346;2022-12-18T09:07:08;8.93;;;6.60;;
35897;SDS011;21997;47.118;15.346;2022-12-18T09:09:34;9.50;;;6.47;;
35897;SDS011;21997;47.118;15.346;2022-12-18T09:11:59;7.53;;;6.80;;
35897;SDS011;21997;47.118;15.346;2022-12-18T09:14:24;8.17;;;6.63;;
35897;SDS011;21997;47.118;15.346;2022-12-18T09:16:50;22.93;;;12.60;;
35897;SDS011;21997;47.118;15.346;2022-12-18T09:19:15;15.87;;;9.53;;
35897;SDS011;21997;47.118;15.346;2022-12-18T09:21:41;11.70;;;7.63;;
35897;SDS011;21997;47.118;15.346;2022-12-18T09:24:08;27.03;;;12.60;;
35897;SDS011;21997;47.118;15.346;2022-12-18T09:26:36;12.60;;;7.97;;
35897;SDS011;21997;47.118;15.346;2022-12-18T09:29:02;11.07;;;7.45;;
35897;SDS011;21997;47.118;15.346;2022-12-18T09:31:28;12.65;;;8.32;;
35897;SDS011;21997;47.118;15.346;2022-12-18T09:33:54;9.10;;;6.82;;
35897;SDS011;21997;47.118;15.346;2022-12-18T09:36:20;9.05;;;7.22;;
35897;SDS011;21997;47.118;15.346;2022-12-18T09:38:45;7.43;;;6.72;;
35897;SDS011;21997;47.118;15.346;2022-12-18T09:43:58;7.55;;;6.85;;
35897;SDS011;21997;47.118;15.346;2022-12-18T09:46:27;8.98;;;8.18;;
35897;SDS011;21997;47.118;15.346;2022-12-18T09:48:55;9.25;;;8.45;;
35897;SDS011;21997;47.118;15.346;2022-12-18T09:51:28;6.63;;;5.90;;
35897;SDS011;21997;47.118;15.346;2022-12-18T09:54:02;6.73;;;6.03;;
35897;SDS011;21997;47.118;15.346;2022-12-18T09:56:31;7.20;;;5.97;;
35897;SDS011;21997;47.118;15.346;2022-12-18T09:59:00;7.50;;;5.60;;
35897;SDS011;21997;47.118;15.346;2022-12-18T10:01:27;6.00;;;5.07;;
35897;SDS011;21997;47.118;15.346;2022-12-18T10:03:54;10.27;;;7.60;;
35897;SDS011;21997;47.118;15.346;2022-12-18T10:06:34;13.20;;;10.90;;
35897;SDS011;21997;47.118;15.346;2022-12-18T10:15:02;15.30;;;13.50;;
35897;SDS011;21997;47.118;15.346;2022-12-18T10:22:55;6.83;;;5.47;;
35897;SDS011;21997;47.118;15.346;2022-12-18T10:25:31;7.97;;;6.33;;
35897;SDS011;21997;47.118;15.346;2022-12-18T10:28:17;7.73;;;6.33;;
35897;SDS011;21997;47.118;15.346;2022-12-18T10:30:43;12.23;;;10.93;;
35897;SDS011;21997;47.118;15.346;2022-12-18T10:33:12;8.90;;;7.00;;
35897;SDS011;21997;47.118;15.346;2022-12-18T10:35:43;7.70;;;5.57;;
35897;SDS011;21997;47.118;15.346;2022-12-18T10:43:51;8.97;;;6.80;;
35897;SDS011;21997;47.118;15.346;2022-12-18T10:51:24;8.90;;;6.80;;
35897;SDS011;21997;47.118;15.346;2022-12-18T10:56:29;8.03;;;5.80;;
35897;SDS011;21997;47.118;15.346;2022-12-18T10:58:59;10.63;;;6.50;;
35897;SDS011;21997;47.118;15.346;2022-12-18T11:01:32;8.50;;;6.00;;
35897;SDS011;21997;47.118;15.346;2022-12-18T11:04:21;8.03;;;5.70;;
35897;SDS011;21997;47.118;15.346;2022-12-18T11:06:55;10.30;;;5.50;;
35897;SDS011;21997;47.118;15.346;2022-12-18T11:09:34;7.90;;;5.40;;
35897;SDS011;21997;47.118;15.346;2022-12-18T11:17:16;13.10;;;7.27;;
35897;SDS011;21997;47.118;15.346;2022-12-18T11:19:52;6.50;;;5.70;;
35897;SDS011;21997;47.118;15.346;2022-12-18T11:22:19;9.70;;;6.07;;
35897;SDS011;21997;47.118;15.346;2022-12-18T11:25:05;8.53;;;6.50;;
35897;SDS011;21997;47.118;15.346;2022-12-18T11:27:47;7.37;;;5.73;;
35897;SDS011;21997;47.118;15.346;2022-12-18T11:32:46;7.07;;;6.10;;
35897;SDS011;21997;47.118;15.346;2022-12-18T11:35:18;9.70;;;7.27;;
35897;SDS011;21997;47.118;15.346;2022-12-18T11:37:47;15.30;;;11.07;;
35897;SDS011;21997;47.118;15.346;2022-12-18T11:40:17;21.20;;;13.90;;
35897;SDS011;21997;47.118;15.346;2022-12-18T11:50:28;19.43;;;13.93;;
35897;SDS011;21997;47.118;15.346;2022-12-18T11:52:57;24.00;;;16.63;;
35897;SDS011;21997;47.118;15.346;2022-12-18T11:55:45;27.33;;;18.30;;
35897;SDS011;21997;47.118;15.346;2022-12-18T11:59:13;29.63;;;18.30;;
35897;SDS011;21997;47.118;15.346;2022-12-18T12:01:46;24.83;;;15.43;;
35897;SDS011;21997;47.118;15.346;2022-12-18T12:09:31;21.60;;;14.70;;
35897;SDS011;21997;47.118;15.346;2022-12-18T12:14:37;20.17;;;15.70;;
35897;SDS011;21997;47.118;15.346;2022-12-18T12:17:15;33.07;;;23.93;;
35897;SDS011;21997;47.118;15.346;2022-12-18T12:25:34;20.77;;;13.40;;
35897;SDS011;21997;47.118;15.346;2022-12-18T12:39:11;17.23;;;12.33;;
35897;SDS011;21997;47.118;15.346;2022-12-18T12:41:39;20.93;;;12.60;;
35897;SDS011;21997;47.118;15.346;2022-12-18T12:44:27;19.73;;;12.37;;
35897;SDS011;21997;47.118;15.346;2022-12-18T12:46:55;20.93;;;13.37;;
35897;SDS011;21997;47.118;15.346;2022-12-18T12:49:25;22.23;;;13.90;;
35897;SDS011;21997;47.118;15.346;2022-12-18T12:51:54;19.27;;;14.03;;
35897;SDS011;21997;47.118;15.346;2022-12-18T12:54:42;17.60;;;12.63;;
35897;SDS011;21997;47.118;15.346;2022-12-18T13:02:30;18.77;;;13.57;;
35897;SDS011;21997;47.118;15.346;2022-12-18T13:05:02;21.77;;;13.80;;
35897;SDS011;21997;47.118;15.346;2022-12-18T13:07:41;21.27;;;14.27;;
35897;SDS011;21997;47.118;15.346;2022-12-18T13:12:57;23.77;;;15.00;;
35897;SDS011;21997;47.118;15.346;2022-12-18T13:17:48;21.27;;;13.70;;
35897;SDS011;21997;47.118;15.346;2022-12-18T13:20:14;20.67;;;13.30;;
35897;SDS011;21997;47.118;15.346;2022-12-18T13:22:44;22.83;;;14.37;;
35897;SDS011;21997;47.118;15.346;2022-12-18T13:28:00;23.50;;;15.17;;
35897;SDS011;21997;47.118;15.346;2022-12-18T13:35:41;24.37;;;16.93;;
35897;SDS011;21997;47.118;15.346;2022-12-18T13:38:23;34.83;;;23.53;;
35897;SDS011;21997;47.118;15.346;2022-12-18T13:46:17;26.17;;;17.20;;
35897;SDS011;21997;47.118;15.346;2022-12-18T13:51:26;22.13;;;15.47;;
35897;SDS011;21997;47.118;15.346;2022-12-18T13:54:00;24.90;;;16.20;;
35897;SDS011;21997;47.118;15.346;2022-12-18T13:56:30;27.57;;;15.00;;
35897;SDS011;21997;47.118;15.346;2022-12-18T13:59:03;23.07;;;14.93;;
35897;SDS011;21997;47.118;15.346;2022-12-18T14:01:31;29.43;;;16.00;;
35897;SDS011;21997;47.118;15.346;2022-12-18T14:04:38;28.60;;;17.43;;
35897;SDS011;21997;47.118;15.346;2022-12-18T14:06:50;25.97;;;16.40;;
35897;SDS011;21997;47.118;15.346;2022-12-18T14:09:19;26.77;;;16.07;;
35897;SDS011;21997;47.118;15.346;2022-12-18T14:11:48;26.63;;;16.57;;
35897;SDS011;21997;47.118;15.346;2022-12-18T14:14:17;25.97;;;17.03;;
35897;SDS011;21997;47.118;15.346;2022-12-18T14:16:43;30.40;;;17.53;;
35897;SDS011;21997;47.118;15.346;2022-12-18T14:19:14;29.63;;;17.47;;
35897;SDS011;21997;47.118;15.346;2022-12-18T14:21:45;28.47;;;17.73;;
35897;SDS011;21997;47.118;15.346;2022-12-18T14:24:15;30.03;;;17.83;;
35897;SDS011;21997;47.118;15.346;2022-12-18T14:26:46;27.30;;;18.43;;
35897;SDS011;21997;47.118;15.346;2022-12-18T14:29:26;32.57;;;19.00;;
35897;SDS011;21997;47.118;15.346;2022-12-18T14:32:12;33.70;;;20.17;;
35897;SDS011;21997;47.118;15.346;2022-12-18T14:34:41;33.67;;;21.77;;
35897;SDS011;21997;47.118;15.346;2022-12-18T14:37:11;35.43;;;20.20;;
35897;SDS011;21997;47.118;15.346;2022-12-18T14:39:38;41.60;;;22.60;;
35897;SDS011;21997;47.118;15.346;2022-12-18T14:42:03;30.23;;;18.27;;
35897;SDS011;21997;47.118;15.346;2022-12-18T14:44:29;26.53;;;15.80;;
35897;SDS011;21997;47.118;15.346;2022-12-18T14:46:54;31.30;;;19.77;;
35897;SDS011;21997;47.118;15.346;2022-12-18T14:52:13;30.80;;;18.07;;
35897;SDS011;21997;47.118;15.346;2022-12-18T14:54:45;36.93;;;24.27;;
35897;SDS011;21997;47.118;15.346;2022-12-18T14:57:21;34.17;;;21.50;;
35897;SDS011;21997;47.118;15.346;2022-12-18T14:59:48;34.27;;;19.93;;
35897;SDS011;21997;47.118;15.346;2022-12-18T15:05:02;35.60;;;21.07;;
35897;SDS011;21997;47.118;15.346;2022-12-18T15:07:44;48.13;;;32.43;;
35897;SDS011;21997;47.118;15.346;2022-12-18T15:10:13;44.47;;;31.57;;
35897;SDS011;21997;47.118;15.346;2022-12-18T15:12:46;38.03;;;24.17;;
35897;SDS011;21997;47.118;15.346;2022-12-18T15:18:03;26.63;;;17.63;;
35897;SDS011;21997;47.118;15.346;2022-12-18T15:20:33;30.47;;;17.03;;
35897;SDS011;21997;47.118;15.346;2022-12-18T15:23:16;30.30;;;18.80;;
35897;SDS011;21997;47.118;15.346;2022-12-18T15:25:43;33.60;;;18.33;;
35897;SDS011;21997;47.118;15.346;2022-12-18T15:28:19;31.73;;;17.67;;
35897;SDS011;21997;47.118;15.346;2022-12-18T15:31:48;27.33;;;16.37;;
35897;SDS011;21997;47.118;15.346;2022-12-18T15:36:20;31.93;;;18.77;;
35897;SDS011;21997;47.118;15.346;2022-12-18T15:38:48;30.93;;;17.93;;
35897;SDS011;21997;47.118;15.346;2022-12-18T15:41:15;31.00;;;19.00;;
35897;SDS011;21997;47.118;15.346;2022-12-18T15:43:42;30.50;;;16.87;;
35897;SDS011;21997;47.118;15.346;2022-12-18T15:46:11;30.70;;;16.90;;
35897;SDS011;21997;47.118;15.346;2022-12-18T15:48:40;28.57;;;16.80;;
35897;SDS011;21997;47.118;15.346;2022-12-18T15:51:18;29.37;;;17.10;;
35897;SDS011;21997;47.118;15.346;2022-12-18T15:54:01;29.93;;;16.47;;
35897;SDS011;21997;47.118;15.346;2022-12-18T15:56:28;28.60;;;16.60;;
35897;SDS011;21997;47.118;15.346;2022-12-18T15:59:14;30.70;;;18.00;;
35897;SDS011;21997;47.118;15.346;2022-12-18T16:01:42;29.93;;;16.40;;
35897;SDS011;21997;47.118;15.346;2022-12-18T16:04:13;27.67;;;15.90;;
35897;SDS011;21997;47.118;15.346;2022-12-18T16:06:42;28.30;;;16.67;;
35897;SDS011;21997;47.118;15.346;2022-12-18T16:09:08;24.97;;;16.37;;
35897;SDS011;21997;47.118;15.346;2022-12-18T16:11:35;25.40;;;16.77;;
35897;SDS011;21997;47.118;15.346;2022-12-18T16:14:19;29.37;;;16.87;;
35897;SDS011;21997;47.118;15.346;2022-12-18T16:16:56;25.57;;;15.37;;
35897;SDS011;21997;47.118;15.346;2022-12-18T16:19:26;24.67;;;15.10;;
35897;SDS011;21997;47.118;15.346;2022-12-18T16:21:53;26.73;;;15.70;;
35897;SDS011;21997;47.118;15.346;2022-12-18T16:24:24;28.00;;;17.00;;
35897;SDS011;21997;47.118;15.346;2022-12-18T16:26:55;25.77;;;15.23;;
35897;SDS011;21997;47.118;15.346;2022-12-18T16:29:25;29.90;;;16.47;;
35897;SDS011;21997;47.118;15.346;2022-12-18T16:31:56;29.50;;;16.80;;
35897;SDS011;21997;47.118;15.346;2022-12-18T16:34:24;29.10;;;16.60;;
35897;SDS011;21997;47.118;15.346;2022-12-18T16:36:53;28.47;;;17.87;;
35897;SDS011;21997;47.118;15.346;2022-12-18T16:39:19;25.57;;;15.47;;
35897;SDS011;21997;47.118;15.346;2022-12-18T16:41:45;29.63;;;17.50;;
35897;SDS011;21997;47.118;15.346;2022-12-18T16:44:13;26.10;;;16.13;;
35897;SDS011;21997;47.118;15.346;2022-12-18T16:46:39;24.73;;;15.60;;
35897;SDS011;21997;47.118;15.346;2022-12-18T16:49:08;27.27;;;16.20;;
35897;SDS011;21997;47.118;15.346;2022-12-18T16:51:35;28.80;;;17.23;;
35897;SDS011;21997;47.118;15.346;2022-12-18T16:54:01;30.00;;;17.23;;
35897;SDS011;21997;47.118;15.346;2022-12-18T16:56:27;26.37;;;16.50;;
35897;SDS011;21997;47.118;15.346;2022-12-18T16:58:53;30.70;;;17.83;;
35897;SDS011;21997;47.118;15.346;2022-12-18T17:01:22;32.17;;;17.73;;
35897;SDS011;21997;47.118;15.346;2022-12-18T17:03:52;30.23;;;17.97;;